Weather History for Washington, IA

Change the Weather History Date:

Sunday, January 19, 2014

  Actual Average Record
Temperature  
Mean Temperature 30 °F -  
Max Temperature 48 °F 28 °F 59 °F (2006)
Min Temperature 12 °F 14 °F -4 °F (2008)
Degree Days  
Heating Degree Days 35    
Moisture  
Dew Point 23 °F    
Average Humidity 73    
Maximum Humidity 93    
Minimum Humidity 50    
Precipitation  
Precipitation 0.00 in - - ()
Sea Level Pressure  
Sea Level Pressure 29.76 in    
Wind  
Wind Speed 14 mph (WSW)    
Max Wind Speed 23 mph    
Max Gust Speed 30 mph    
Visibility 10 miles    
Events      
Averages and records for this station are not official NWS values.
T = Trace of Precipitation, MM = Missing Value Source: NWS Daily Summary

Daily Weather History Graph

Daily Weather History Graph

Search for Another Location

Airport:

Trip Planner

Search our weather history database for the weather conditions in past years. The results will help you decide how hot, cold, wet, or windy it might be!

Date:

Astronomy

Jan. 19, 2014 Rise Set
Actual Time 7:28 AM CST 5:07 PM CST
Civil Twilight 6:57 AM CST 5:37 PM CST
Nautical Twilight 6:24 AM CST 6:11 PM CST
Astronomical Twilight 5:51 AM CST 6:44 PM CST
Moon 8:48 PM CST (1/19) 8:55 AM CST (1/19)
Length of Visible Light 10h 39m
Length of Day
9h 39m
Waning Gibbous, 89% of the Moon is Illuminated
Jan 19
Waning Gibbous
Jan 23
Last Quarter
Jan 30
New
Feb 6
First Quarter
Feb 14
Full

Hourly Weather History & Observations

Time (CST) Temp. Windchill Dew Point Humidity Pressure Visibility Wind Dir Wind Speed Gust Speed Precip Events Conditions
12:15 AM 12.2 °F -1.8 °F 10.4 °F 92% 29.97 in 10.0 mi West 11.5 mph - N/A   Clear
12:35 AM 14.0 °F 1.2 °F 10.4 °F 86% 29.96 in - West 10.4 mph - N/A   Unknown
12:55 AM 14.0 °F -0.2 °F 10.4 °F 86% 29.96 in 10.0 mi West 12.7 mph - N/A   Clear
1:15 AM 12.2 °F -1.8 °F 10.4 °F 92% 29.96 in 10.0 mi WSW 11.5 mph - N/A   Clear
1:35 AM 14.0 °F 1.2 °F 10.4 °F 86% 29.95 in 10.0 mi WSW 10.4 mph - N/A   Clear
1:55 AM 14.0 °F 0.5 °F 12.2 °F 93% 29.95 in 10.0 mi WSW 11.5 mph - N/A   Clear
2:15 AM 15.8 °F 3.4 °F 12.2 °F 86% 29.94 in 10.0 mi WSW 10.4 mph - N/A   Clear
2:35 AM 15.8 °F 3.4 °F 12.2 °F 86% 29.94 in 10.0 mi SW 10.4 mph - N/A   Clear
2:55 AM 15.8 °F 3.4 °F 12.2 °F 86% 29.93 in 10.0 mi SW 10.4 mph - N/A   Clear
3:15 AM 15.8 °F 2.1 °F 12.2 °F 86% 29.92 in 10.0 mi WSW 12.7 mph - N/A   Clear
3:35 AM 15.8 °F 2.7 °F 14.0 °F 93% 29.92 in 10.0 mi SW 11.5 mph - N/A   Clear
3:55 AM 15.8 °F 2.1 °F 14.0 °F 93% 29.90 in 10.0 mi SW 12.7 mph - N/A   Clear
4:15 AM 17.6 °F 5.7 °F 14.0 °F 86% 29.90 in 10.0 mi SW 10.4 mph - N/A   Clear
4:35 AM 17.6 °F 4.3 °F 14.0 °F 86% 29.89 in 10.0 mi SW 12.7 mph - N/A   Clear
4:55 AM 17.6 °F 4.3 °F 14.0 °F 86% 29.89 in 10.0 mi SW 12.7 mph - N/A   Clear
5:15 AM 15.8 °F 2.7 °F 14.0 °F 93% 29.89 in 10.0 mi SW 11.5 mph - N/A   Clear
5:35 AM 17.6 °F 4.3 °F 14.0 °F 86% 29.89 in 10.0 mi SW 12.7 mph - N/A   Clear
5:55 AM 17.6 °F 3.2 °F 14.0 °F 86% 29.86 in 10.0 mi SW 15.0 mph - N/A   Clear
6:15 AM 17.6 °F 3.7 °F 14.0 °F 86% 29.86 in 10.0 mi SW 13.8 mph - N/A   Clear
6:35 AM 17.6 °F 3.7 °F 15.8 °F 93% 29.85 in 10.0 mi SW 13.8 mph - N/A   Clear
6:55 AM 19.4 °F 6.6 °F 15.8 °F 86% 29.84 in 10.0 mi SW 12.7 mph - N/A   Clear
7:15 AM 19.4 °F 6.0 °F 15.8 °F 86% 29.84 in 10.0 mi SW 13.8 mph - N/A   Clear
7:35 AM 19.4 °F 6.0 °F 15.8 °F 86% 29.83 in 10.0 mi SW 13.8 mph - N/A   Clear
7:55 AM 21.2 °F 7.8 °F 17.6 °F 86% 29.81 in 10.0 mi SW 15.0 mph - N/A   Clear
8:15 AM 23.0 °F 10.1 °F 17.6 °F 80% 29.81 in 10.0 mi SW 15.0 mph - N/A   Clear
8:35 AM 24.8 °F 12.4 °F 19.4 °F 80% 29.80 in 10.0 mi SW 15.0 mph - N/A   Clear
8:55 AM 24.8 °F 11.9 °F 19.4 °F 80% 29.80 in 10.0 mi SW 16.1 mph - N/A   Clear
9:15 AM 26.6 °F 14.3 °F 21.2 °F 80% 29.80 in 10.0 mi SW 16.1 mph 23.0 mph N/A   Clear
9:35 AM 28.4 °F 16.6 °F 21.2 °F 74% 29.79 in 10.0 mi SW 16.1 mph 23.0 mph N/A   Clear
9:55 AM 30.2 °F 18.9 °F 23.0 °F 75% 29.78 in 10.0 mi WSW 16.1 mph 25.3 mph N/A   Clear
10:15 AM 32.0 °F 19.8 °F 23.0 °F 69% 29.77 in 10.0 mi WSW 20.7 mph - N/A   Clear
10:35 AM 33.8 °F 22.8 °F 24.8 °F 70% 29.76 in 10.0 mi SW 18.4 mph - N/A   Clear
10:55 AM 33.8 °F 22.8 °F 24.8 °F 70% 29.74 in 10.0 mi SW 18.4 mph - N/A   Clear
11:15 AM 35.6 °F 24.8 °F 26.6 °F 70% 29.72 in 10.0 mi SW 19.6 mph 26.5 mph N/A   Clear
11:35 AM 37.4 °F 27.2 °F 26.6 °F 65% 29.72 in 10.0 mi WSW 19.6 mph 25.3 mph N/A   Clear
11:55 AM 39.2 °F 28.7 °F 26.6 °F 61% 29.70 in 10.0 mi WSW 23.0 mph - N/A   Clear
12:15 PM 41.0 °F 31.4 °F 28.4 °F 61% 29.69 in 10.0 mi WSW 21.9 mph 29.9 mph N/A   Clear
12:35 PM 42.8 °F 34.8 °F 28.4 °F 57% 29.67 in 10.0 mi WSW 17.3 mph 24.2 mph N/A   Clear
12:55 PM 42.8 °F 33.8 °F 30.2 °F 61% 29.66 in 10.0 mi WSW 21.9 mph - N/A   Clear
1:15 PM 44.6 °F 37.2 °F 30.2 °F 57% 29.66 in 10.0 mi WSW 17.3 mph 24.2 mph N/A   Clear
1:35 PM 44.6 °F 37.2 °F 30.2 °F 57% 29.65 in 10.0 mi WSW 17.3 mph 24.2 mph N/A   Clear
1:55 PM 44.6 °F 37.4 °F 30.2 °F 57% 29.64 in 10.0 mi WSW 16.1 mph 23.0 mph N/A   Clear
2:15 PM 46.4 °F 39.5 °F 30.2 °F 53% 29.63 in 10.0 mi WSW 17.3 mph - N/A   Clear
2:35 PM 46.4 °F 39.5 °F 32.0 °F 57% 29.62 in 10.0 mi WSW 17.3 mph - N/A   Clear
2:55 PM 46.4 °F 39.2 °F 30.2 °F 53% 29.61 in 10.0 mi WSW 18.4 mph - N/A   Clear
3:15 PM 48.2 °F - 30.2 °F 50% 29.60 in 10.0 mi SW 16.1 mph - N/A   Clear
3:35 PM 48.2 °F - 32.0 °F 54% 29.60 in 10.0 mi SW 13.8 mph 25.3 mph N/A   Clear
3:55 PM 48.2 °F - 32.0 °F 54% 29.60 in 10.0 mi WSW 15.0 mph 20.7 mph N/A   Clear
4:15 PM 46.4 °F 41.1 °F 32.0 °F 57% 29.60 in 10.0 mi WSW 11.5 mph 18.4 mph N/A   Clear
4:35 PM 46.4 °F 41.1 °F 32.0 °F 57% 29.60 in 10.0 mi SW 11.5 mph - N/A   Clear
4:55 PM 44.6 °F 38.4 °F 32.0 °F 61% 29.59 in 10.0 mi SW 12.7 mph - N/A   Clear
5:15 PM 42.8 °F 36.2 °F 32.0 °F 66% 29.60 in 10.0 mi SW 12.7 mph - N/A   Clear
5:35 PM 42.8 °F 36.2 °F 30.2 °F 61% 29.60 in 10.0 mi WSW 12.7 mph - N/A   Clear
5:55 PM 42.8 °F 36.2 °F 30.2 °F 61% 29.61 in 10.0 mi WSW 12.7 mph - N/A   Clear
6:15 PM 42.8 °F 36.2 °F 30.2 °F 61% 29.61 in 10.0 mi WSW 12.7 mph - N/A   Clear
6:55 PM 42.8 °F 36.2 °F 30.2 °F 61% 29.61 in 10.0 mi WSW 12.7 mph - N/A   Clear
7:15 PM 41.0 °F 34.7 °F 30.2 °F 65% 29.63 in 10.0 mi West 10.4 mph - N/A   Clear
7:35 PM 42.8 °F 36.6 °F 30.2 °F 61% 29.64 in 10.0 mi West 11.5 mph - N/A   Clear
7:55 PM 44.6 °F 37.8 °F 30.2 °F 57% 29.64 in 10.0 mi West 15.0 mph 20.7 mph N/A   Clear
8:15 PM 42.8 °F 35.8 °F 30.2 °F 61% 29.65 in 10.0 mi West 13.8 mph - N/A   Clear
8:35 PM 42.8 °F 35.8 °F 30.2 °F 61% 29.66 in 10.0 mi West 13.8 mph - N/A   Clear
8:55 PM 41.0 °F 34.3 °F 30.2 °F 65% 29.67 in 10.0 mi West 11.5 mph 19.6 mph N/A   Clear
9:15 PM 41.0 °F 33.5 °F 30.2 °F 65% 29.67 in 10.0 mi WNW 13.8 mph - N/A   Clear
9:35 PM 39.2 °F 31.2 °F 30.2 °F 70% 29.68 in 10.0 mi WNW 13.8 mph - N/A   Clear
9:55 PM 39.2 °F 30.5 °F 32.0 °F 75% 29.70 in 10.0 mi WNW 16.1 mph - N/A   Clear
10:15 PM - - - N/A% - - North - - N/A   Unknown
10:35 PM 39.2 °F 30.5 °F 30.2 °F 70% 29.72 in 10.0 mi WNW 16.1 mph - N/A   Unknown
10:55 PM 39.2 °F 30.5 °F 32.0 °F 75% 29.73 in 10.0 mi WNW 16.1 mph 25.3 mph N/A   Clear
11:15 PM 39.2 °F 30.5 °F 32.0 °F 75% 29.74 in 10.0 mi WNW 16.1 mph 25.3 mph N/A   Clear
11:35 PM 37.4 °F 26.6 °F 32.0 °F 81% 29.74 in 10.0 mi NW 21.9 mph - N/A   Clear
11:55 PM 37.4 °F 27.8 °F 32.0 °F 81% 29.75 in 10.0 mi NW 17.3 mph 27.6 mph N/A   Clear